sensor_id;sensor_type;location;lat;lon;timestamp;P1;durP1;ratioP1;P2;durP2;ratioP2
10230;SDS011;62604;49.432;8.680;2023-04-01T08:31:40;9.75;;;9.05;;
10230;SDS011;62604;49.432;8.680;2023-04-01T08:34:17;10.17;;;9.47;;
10230;SDS011;62604;49.432;8.680;2023-04-01T08:36:49;9.90;;;9.30;;
10230;SDS011;62604;49.432;8.680;2023-04-01T08:39:21;11.77;;;10.77;;
10230;SDS011;62604;49.432;8.680;2023-04-01T08:47:52;10.20;;;9.50;;
10230;SDS011;62604;49.432;8.680;2023-04-01T08:50:46;10.20;;;9.50;;
10230;SDS011;62604;49.432;8.680;2023-04-01T08:53:28;10.40;;;9.70;;
10230;SDS011;62604;49.432;8.680;2023-04-01T08:56:10;10.03;;;9.43;;
10230;SDS011;62604;49.432;8.680;2023-04-01T08:58:51;10.30;;;9.60;;
10230;SDS011;62604;49.432;8.680;2023-04-01T09:01:35;10.93;;;10.03;;
10230;SDS011;62604;49.432;8.680;2023-04-01T09:04:36;10.63;;;9.83;;
10230;SDS011;62604;49.432;8.680;2023-04-01T09:07:18;10.13;;;9.43;;
10230;SDS011;62604;49.432;8.680;2023-04-01T09:13:07;10.00;;;9.30;;
10230;SDS011;62604;49.432;8.680;2023-04-01T09:16:08;9.87;;;9.27;;
10230;SDS011;62604;49.432;8.680;2023-04-01T09:21:58;9.80;;;9.13;;
10230;SDS011;62604;49.432;8.680;2023-04-01T09:37:17;10.00;;;9.20;;
10230;SDS011;62604;49.432;8.680;2023-04-01T09:39:53;10.23;;;9.53;;
10230;SDS011;62604;49.432;8.680;2023-04-01T09:42:44;10.20;;;9.50;;
10230;SDS011;62604;49.432;8.680;2023-04-01T09:45:23;10.07;;;9.37;;
10230;SDS011;62604;49.432;8.680;2023-04-01T09:48:07;10.53;;;9.77;;
10230;SDS011;62604;49.432;8.680;2023-04-01T09:50:46;10.73;;;10.03;;
10230;SDS011;62604;49.432;8.680;2023-04-01T09:53:30;10.77;;;9.90;;
10230;SDS011;62604;49.432;8.680;2023-04-01T09:56:18;10.90;;;10.00;;
10230;SDS011;62604;49.432;8.680;2023-04-01T10:02:13;10.77;;;10.07;;
10230;SDS011;62604;49.432;8.680;2023-04-01T10:14:28;10.40;;;9.70;;
10230;SDS011;62604;49.432;8.680;2023-04-01T10:17:28;10.43;;;9.73;;
10230;SDS011;62604;49.432;8.680;2023-04-01T10:20:22;10.63;;;9.93;;
10230;SDS011;62604;49.432;8.680;2023-04-01T10:23:20;10.00;;;9.40;;
10230;SDS011;62604;49.432;8.680;2023-04-01T10:38:35;9.90;;;9.30;;
10230;SDS011;62604;49.432;8.680;2023-04-01T10:41:43;10.10;;;9.40;;
10230;SDS011;62604;49.432;8.680;2023-04-01T10:44:45;10.13;;;9.30;;
10230;SDS011;62604;49.432;8.680;2023-04-01T10:51:10;10.13;;;9.43;;
10230;SDS011;62604;49.432;8.680;2023-04-01T10:53:59;10.40;;;9.70;;
10230;SDS011;62604;49.432;8.680;2023-04-01T10:56:54;10.40;;;9.70;;
10230;SDS011;62604;49.432;8.680;2023-04-01T11:02:40;10.80;;;10.00;;
10230;SDS011;62604;49.432;8.680;2023-04-01T11:12:17;11.00;;;10.20;;
10230;SDS011;62604;49.432;8.680;2023-04-01T11:15:15;11.27;;;10.47;;
10230;SDS011;62604;49.432;8.680;2023-04-01T11:18:17;10.90;;;10.10;;
10230;SDS011;62604;49.432;8.680;2023-04-01T11:21:38;11.03;;;10.23;;
10230;SDS011;62604;49.432;8.680;2023-04-01T11:24:26;11.00;;;10.30;;
10230;SDS011;62604;49.432;8.680;2023-04-01T11:27:21;11.03;;;10.23;;
10230;SDS011;62604;49.432;8.680;2023-04-01T11:30:09;10.77;;;9.97;;
10230;SDS011;62604;49.432;8.680;2023-04-01T11:32:46;11.00;;;10.20;;
10230;SDS011;62604;49.432;8.680;2023-04-01T11:38:35;11.27;;;10.47;;
10230;SDS011;62604;49.432;8.680;2023-04-01T11:41:34;10.90;;;10.20;;
10230;SDS011;62604;49.432;8.680;2023-04-01T11:44:16;11.10;;;10.30;;
10230;SDS011;62604;49.432;8.680;2023-04-01T11:47:14;10.90;;;10.20;;
10230;SDS011;62604;49.432;8.680;2023-04-01T11:50:18;10.90;;;10.10;;
10230;SDS011;62604;49.432;8.680;2023-04-01T11:53:01;11.10;;;10.30;;
10230;SDS011;62604;49.432;8.680;2023-04-01T11:55:52;10.60;;;9.90;;
10230;SDS011;62604;49.432;8.680;2023-04-01T11:58:34;10.70;;;9.80;;
10230;SDS011;62604;49.432;8.680;2023-04-01T12:01:29;10.50;;;9.80;;
10230;SDS011;62604;49.432;8.680;2023-04-01T12:07:23;9.70;;;9.10;;
10230;SDS011;62604;49.432;8.680;2023-04-01T12:10:05;10.20;;;9.50;;
10230;SDS011;62604;49.432;8.680;2023-04-01T12:13:02;9.70;;;9.10;;
10230;SDS011;62604;49.432;8.680;2023-04-01T12:15:36;10.03;;;9.40;;
10230;SDS011;62604;49.432;8.680;2023-04-01T12:18:20;10.10;;;9.30;;
10230;SDS011;62604;49.432;8.680;2023-04-01T12:20:57;10.03;;;9.37;;
10230;SDS011;62604;49.432;8.680;2023-04-01T12:23:42;10.10;;;9.50;;
10230;SDS011;62604;49.432;8.680;2023-04-01T12:26:33;9.93;;;9.30;;
